createdAt,value
2022-12-24T00:00:22.375Z,9.86
2022-12-24T00:02:55.368Z,9.89
2022-12-24T00:05:28.225Z,9.88
2022-12-24T00:08:01.061Z,9.94
2022-12-24T00:10:35.184Z,9.89
2022-12-24T00:13:07.996Z,9.92
2022-12-24T00:15:40.743Z,9.81
2022-12-24T00:18:13.740Z,9.73
2022-12-24T00:20:48.517Z,9.70
2022-12-24T00:23:21.669Z,9.58
2022-12-24T00:25:55.857Z,9.72
2022-12-24T00:28:28.660Z,9.68
2022-12-24T00:31:01.530Z,9.65
2022-12-24T00:33:34.391Z,9.67
2022-12-24T00:36:08.404Z,9.63
2022-12-24T00:38:41.207Z,9.73
2022-12-24T00:41:25.816Z,9.69
2022-12-24T00:44:01.271Z,9.74
2022-12-24T00:46:35.891Z,9.69
2022-12-24T00:49:09.919Z,9.63
2022-12-24T00:51:43.081Z,9.71
2022-12-24T00:54:16.081Z,9.66
2022-12-24T00:56:50.261Z,9.68
2022-12-24T00:59:23.070Z,9.69
2022-12-24T01:01:55.997Z,9.73
2022-12-24T01:04:46.270Z,9.70
2022-12-24T01:07:19.435Z,9.72
2022-12-24T01:09:52.288Z,9.71
2022-12-24T01:12:27.086Z,9.74
2022-12-24T01:15:00.021Z,9.66
2022-12-24T01:17:33.515Z,9.76
2022-12-24T01:20:08.086Z,9.67
2022-12-24T01:22:40.848Z,9.81
2022-12-24T01:25:13.954Z,9.64
2022-12-24T01:27:48.166Z,9.75
2022-12-24T01:30:21.191Z,9.63
2022-12-24T01:32:53.953Z,9.71
2022-12-24T01:35:27.035Z,9.70
2022-12-24T01:37:59.919Z,9.71
2022-12-24T01:40:50.097Z,9.85
2022-12-24T01:43:24.911Z,9.79
2022-12-24T01:45:59.784Z,9.78
2022-12-24T01:48:37.940Z,9.79
2022-12-24T01:51:18.645Z,9.78
2022-12-24T01:53:55.707Z,9.77
2022-12-24T01:56:30.813Z,9.72
2022-12-24T01:59:09.221Z,9.59
2022-12-24T02:01:42.236Z,9.70
2022-12-24T02:04:23.073Z,9.69
2022-12-24T02:06:55.969Z,9.66
2022-12-24T02:09:29.333Z,9.57
2022-12-24T02:12:02.992Z,9.63
2022-12-24T02:14:38.211Z,9.58
2022-12-24T02:17:19.404Z,9.68
2022-12-24T02:20:18.521Z,9.63
2022-12-24T02:23:13.381Z,9.67
2022-12-24T02:26:03.083Z,9.72
2022-12-24T02:28:57.703Z,9.64
2022-12-24T02:31:38.994Z,9.58
2022-12-24T02:34:19.450Z,9.60
2022-12-24T02:36:59.730Z,9.63
2022-12-24T02:39:38.298Z,9.58
2022-12-24T02:42:16.282Z,9.61
2022-12-24T02:44:55.399Z,9.57
2022-12-24T02:47:34.126Z,9.57
2022-12-24T02:50:09.943Z,9.59
2022-12-24T02:52:45.319Z,9.51
2022-12-24T02:55:22.597Z,9.56
2022-12-24T02:58:18.050Z,9.50
2022-12-24T03:01:17.137Z,9.50
2022-12-24T03:04:12.386Z,9.52
2022-12-24T03:06:51.525Z,9.53
2022-12-24T03:09:28.301Z,9.49
2022-12-24T03:12:07.201Z,9.48
2022-12-24T03:14:42.301Z,9.45
2022-12-24T03:17:16.120Z,9.38
2022-12-24T03:19:51.107Z,9.34
2022-12-24T03:22:26.137Z,9.33
2022-12-24T03:24:59.007Z,9.31
2022-12-24T03:27:34.605Z,9.23
2022-12-24T03:30:11.703Z,9.33
2022-12-24T03:32:44.548Z,9.31
2022-12-24T03:35:18.912Z,9.36
2022-12-24T03:37:51.703Z,9.30
2022-12-24T03:40:24.842Z,9.32
2022-12-24T03:42:57.749Z,9.33
2022-12-24T03:45:30.706Z,9.24
2022-12-24T03:48:03.624Z,9.40
2022-12-24T03:50:37.719Z,9.33
2022-12-24T03:53:10.590Z,9.21
2022-12-24T03:55:43.512Z,9.31
2022-12-24T03:58:16.625Z,9.28
2022-12-24T04:00:49.547Z,9.29
2022-12-24T04:03:22.527Z,9.35
2022-12-24T04:06:03.444Z,9.32
2022-12-24T04:08:36.701Z,9.35
2022-12-24T04:11:11.464Z,9.33
2022-12-24T04:13:44.583Z,9.26
2022-12-24T04:16:18.391Z,9.29
2022-12-24T04:18:51.407Z,9.27
2022-12-24T04:21:25.541Z,9.26
2022-12-24T04:23:58.466Z,9.27
2022-12-24T04:26:31.291Z,9.24
2022-12-24T04:29:04.027Z,9.29
2022-12-24T04:31:37.168Z,9.31
2022-12-24T04:34:09.938Z,9.20
2022-12-24T04:36:44.695Z,9.32
2022-12-24T04:39:17.545Z,9.25
2022-12-24T04:41:50.501Z,9.22
2022-12-24T04:44:23.317Z,9.32
2022-12-24T04:46:56.086Z,9.37
2022-12-24T04:49:28.896Z,9.31
2022-12-24T04:52:03.114Z,9.32
2022-12-24T04:54:35.847Z,9.32
2022-12-24T04:57:08.616Z,9.31
2022-12-24T04:59:41.397Z,9.19
2022-12-24T05:02:14.502Z,9.31
2022-12-24T05:04:47.442Z,9.27
2022-12-24T05:07:21.548Z,9.29
2022-12-24T05:09:54.285Z,9.18
2022-12-24T05:12:29.022Z,9.32
2022-12-24T05:15:01.823Z,9.30
2022-12-24T05:17:34.833Z,9.27
2022-12-24T05:20:08.906Z,9.31
2022-12-24T05:23:00.976Z,9.30
2022-12-24T05:25:56.707Z,9.28
2022-12-24T05:28:29.370Z,9.31
2022-12-24T05:31:02.269Z,9.30
2022-12-24T05:33:35.956Z,9.31
2022-12-24T05:36:09.786Z,9.32
2022-12-24T05:38:44.276Z,9.31
2022-12-24T05:41:17.750Z,9.26
2022-12-24T05:43:51.354Z,9.28
2022-12-24T05:46:25.944Z,9.31
2022-12-24T05:48:58.779Z,9.24
2022-12-24T05:51:31.516Z,9.30
2022-12-24T05:54:05.791Z,9.33
2022-12-24T05:56:38.743Z,9.28
2022-12-24T05:59:11.544Z,9.24
2022-12-24T06:01:47.079Z,9.25
2022-12-24T06:04:24.739Z,9.30
2022-12-24T06:07:01.332Z,9.42
2022-12-24T06:09:35.606Z,9.40
2022-12-24T06:12:08.698Z,9.40
2022-12-24T06:14:41.718Z,9.40
2022-12-24T06:17:14.768Z,9.42
2022-12-24T06:19:47.663Z,9.46
2022-12-24T06:22:20.494Z,9.49
2022-12-24T06:24:54.696Z,9.49
2022-12-24T06:27:27.512Z,9.47
2022-12-24T06:30:00.316Z,9.55
2022-12-24T06:32:33.141Z,9.57
2022-12-24T06:35:06.521Z,9.59
2022-12-24T06:37:39.437Z,9.54
2022-12-24T06:40:13.802Z,9.52
2022-12-24T06:42:46.575Z,9.51
2022-12-24T06:45:19.386Z,9.54
2022-12-24T06:47:52.221Z,9.43
2022-12-24T06:50:25.439Z,9.51
2022-12-24T06:52:58.250Z,9.44
2022-12-24T06:55:33.105Z,9.52
2022-12-24T06:58:06.036Z,9.46
2022-12-24T07:00:39.378Z,9.61
2022-12-24T07:03:12.928Z,9.66
2022-12-24T07:05:45.837Z,9.57
2022-12-24T07:08:18.651Z,9.61
2022-12-24T07:10:54.539Z,9.58
2022-12-24T07:13:27.555Z,9.48
2022-12-24T07:16:03.916Z,9.58
2022-12-24T07:18:37.093Z,9.58
2022-12-24T07:21:10.755Z,9.69
2022-12-24T07:23:43.685Z,9.68
2022-12-24T07:26:20.244Z,9.59
2022-12-24T07:28:53.105Z,9.66
2022-12-24T07:31:25.929Z,9.55
2022-12-24T07:33:58.707Z,9.56
2022-12-24T07:36:31.625Z,9.57
2022-12-24T07:39:04.564Z,9.52
2022-12-24T07:41:41.693Z,9.47
2022-12-24T07:44:15.056Z,9.45
2022-12-24T07:46:47.969Z,9.40
2022-12-24T07:49:21.968Z,9.41
2022-12-24T07:51:54.977Z,9.43
2022-12-24T07:54:27.761Z,9.37
2022-12-24T07:57:01.979Z,9.41
2022-12-24T07:59:35.020Z,9.43
2022-12-24T08:02:11.114Z,9.44
2022-12-24T08:04:49.056Z,9.39
2022-12-24T08:07:22.078Z,9.39
2022-12-24T08:09:54.925Z,9.43
2022-12-24T08:12:29.245Z,9.46
2022-12-24T08:15:02.135Z,9.53
2022-12-24T08:17:34.956Z,9.45
2022-12-24T08:20:09.144Z,9.53
2022-12-24T08:22:41.921Z,9.54
2022-12-24T08:25:14.741Z,9.55
2022-12-24T08:27:49.171Z,9.60
2022-12-24T08:30:22.213Z,9.65
2022-12-24T08:32:55.618Z,9.69
2022-12-24T08:35:28.880Z,9.67
2022-12-24T08:38:01.802Z,9.81
2022-12-24T08:40:34.654Z,9.84
2022-12-24T08:43:09.073Z,9.85
2022-12-24T08:45:41.933Z,9.88
2022-12-24T08:48:14.775Z,9.83
2022-12-24T08:50:48.202Z,9.89
2022-12-24T08:53:21.120Z,9.85
2022-12-24T08:55:56.293Z,9.88
2022-12-24T08:58:30.693Z,9.91
2022-12-24T09:01:12.058Z,9.81
2022-12-24T09:03:45.820Z,9.88
2022-12-24T09:06:19.005Z,9.96
2022-12-24T09:08:51.789Z,9.93
2022-12-24T09:11:24.637Z,9.97
2022-12-24T09:13:58.888Z,9.98
2022-12-24T09:16:31.829Z,9.98
2022-12-24T09:19:04.680Z,10.06
2022-12-24T09:21:37.750Z,10.04
2022-12-24T09:24:10.583Z,10.07
2022-12-24T09:26:43.466Z,10.13
2022-12-24T09:29:17.914Z,10.13
2022-12-24T09:31:50.959Z,10.13
2022-12-24T09:34:30.024Z,10.18
2022-12-24T09:37:03.332Z,10.23
2022-12-24T09:39:36.160Z,10.12
2022-12-24T09:42:20.510Z,9.96
2022-12-24T09:44:59.730Z,10.06
2022-12-24T09:47:39.553Z,10.01
2022-12-24T09:50:27.150Z,9.95
2022-12-24T09:53:03.812Z,9.91
2022-12-24T09:55:45.270Z,9.97
2022-12-24T09:58:23.239Z,10.02
2022-12-24T10:00:58.250Z,10.03
2022-12-24T10:03:32.251Z,10.05
2022-12-24T10:06:09.758Z,10.00
2022-12-24T10:08:56.513Z,10.07
2022-12-24T10:11:37.487Z,10.03
2022-12-24T10:14:30.390Z,10.11
2022-12-24T10:17:21.592Z,10.17
2022-12-24T10:20:04.792Z,10.28
2022-12-24T10:22:45.865Z,10.24
2022-12-24T10:25:24.861Z,10.25
2022-12-24T10:28:01.552Z,10.26
2022-12-24T10:30:35.646Z,10.31
2022-12-24T10:33:18.060Z,10.44
2022-12-24T10:35:56.040Z,10.57
2022-12-24T10:38:28.912Z,10.47
2022-12-24T10:41:02.864Z,10.35
2022-12-24T10:43:39.868Z,10.37
2022-12-24T10:46:20.051Z,10.36
2022-12-24T10:48:58.984Z,10.55
2022-12-24T10:51:38.497Z,10.64
2022-12-24T10:54:18.260Z,10.70
2022-12-24T10:56:58.733Z,10.82
2022-12-24T10:59:37.577Z,11.06
2022-12-24T11:02:29.576Z,11.09
2022-12-24T11:05:06.546Z,11.07
2022-12-24T11:07:39.487Z,10.89
2022-12-24T11:10:24.907Z,10.78
2022-12-24T11:13:27.897Z,10.81
2022-12-24T11:16:01.097Z,10.69
2022-12-24T11:18:36.720Z,10.80
2022-12-24T11:21:11.022Z,10.88
2022-12-24T11:23:51.227Z,10.88
2022-12-24T11:26:26.179Z,10.85
2022-12-24T11:29:13.357Z,10.70
2022-12-24T11:31:47.628Z,10.66
2022-12-24T11:34:28.542Z,10.68
2022-12-24T11:37:14.829Z,10.68
2022-12-24T11:39:51.251Z,10.73
2022-12-24T11:42:27.553Z,10.92
2022-12-24T11:45:03.663Z,10.82
2022-12-24T11:47:40.114Z,10.68
2022-12-24T11:50:27.866Z,10.68
2022-12-24T11:53:08.182Z,10.69
2022-12-24T11:55:45.652Z,10.67
2022-12-24T11:58:28.405Z,10.68
2022-12-24T12:01:15.970Z,10.67
2022-12-24T12:03:52.602Z,10.63
2022-12-24T12:06:30.589Z,10.64
2022-12-24T12:09:12.768Z,10.73
2022-12-24T12:11:50.147Z,10.86
2022-12-24T12:14:31.206Z,10.95
2022-12-24T12:17:24.934Z,11.06
2022-12-24T12:20:01.499Z,11.06
2022-12-24T12:22:39.955Z,11.10
2022-12-24T12:25:22.696Z,11.00
2022-12-24T12:27:57.622Z,10.89
2022-12-24T12:30:30.396Z,10.87
2022-12-24T12:33:10.339Z,10.86
2022-12-24T12:35:45.705Z,10.91
2022-12-24T12:38:26.549Z,10.95
2022-12-24T12:41:14.210Z,10.91
2022-12-24T12:44:31.289Z,10.94
2022-12-24T12:47:26.190Z,10.91
2022-12-24T12:50:08.141Z,10.97
2022-12-24T12:52:59.965Z,11.04
2022-12-24T12:55:43.848Z,11.18
2022-12-24T12:58:23.237Z,11.32
2022-12-24T13:01:00.314Z,11.39
2022-12-24T13:04:31.446Z,11.41
2022-12-24T13:07:40.158Z,11.33
2022-12-24T13:10:33.779Z,11.27
2022-12-24T13:13:34.390Z,11.29
2022-12-24T13:16:40.704Z,11.36
2022-12-24T13:19:26.225Z,11.34
2022-12-24T13:21:59.160Z,11.24
2022-12-24T13:24:35.972Z,11.21
2022-12-24T13:27:18.599Z,11.36
2022-12-24T13:29:56.835Z,11.37
2022-12-24T13:32:48.070Z,11.39
2022-12-24T13:35:39.297Z,11.29
2022-12-24T13:38:35.452Z,11.31
2022-12-24T13:41:57.338Z,11.22
2022-12-24T13:44:36.562Z,11.13
2022-12-24T13:47:32.013Z,10.77
2022-12-24T13:50:23.558Z,10.89
2022-12-24T13:52:57.246Z,10.93
2022-12-24T13:55:30.768Z,10.83
2022-12-24T13:58:06.325Z,10.78
2022-12-24T14:00:42.636Z,10.71
2022-12-24T14:03:32.247Z,10.84
2022-12-24T14:06:09.849Z,11.03
2022-12-24T14:08:45.723Z,11.06
2022-12-24T14:11:20.115Z,11.02
2022-12-24T14:14:12.769Z,11.00
2022-12-24T14:16:53.662Z,11.11
2022-12-24T14:19:37.148Z,11.07
2022-12-24T14:22:26.675Z,11.12
2022-12-24T14:25:02.171Z,11.09
2022-12-24T14:27:41.073Z,10.88
2022-12-24T14:30:20.513Z,10.93
2022-12-24T14:32:54.356Z,10.87
2022-12-24T14:35:30.440Z,10.73
2022-12-24T14:38:07.707Z,10.93
2022-12-24T14:40:51.421Z,10.59
2022-12-24T14:43:33.725Z,10.58
2022-12-24T14:46:16.880Z,10.92
2022-12-24T14:48:54.816Z,10.90
2022-12-24T14:51:37.630Z,10.83
2022-12-24T14:54:40.544Z,10.79
2022-12-24T14:57:23.187Z,10.43
2022-12-24T14:59:57.852Z,10.15
2022-12-24T15:02:39.632Z,10.18
2022-12-24T15:05:16.651Z,10.01
2022-12-24T15:07:55.969Z,10.01
2022-12-24T15:10:36.456Z,9.83
2022-12-24T15:13:17.435Z,9.88
2022-12-24T15:15:53.267Z,9.83
2022-12-24T15:18:29.351Z,9.54
2022-12-24T15:21:05.156Z,9.67
2022-12-24T15:23:45.551Z,9.68
2022-12-24T15:26:26.575Z,9.68
2022-12-24T15:29:03.565Z,9.57
2022-12-24T15:31:36.842Z,9.55
2022-12-24T15:34:28.532Z,9.48
2022-12-24T15:37:07.619Z,9.25
2022-12-24T15:39:41.382Z,9.05
2022-12-24T15:42:22.301Z,9.33
2022-12-24T15:45:02.221Z,9.25
2022-12-24T15:47:39.680Z,9.11
2022-12-24T15:50:17.144Z,9.12
2022-12-24T15:53:19.813Z,9.11
2022-12-24T15:55:46.809Z,9.03
2022-12-24T15:58:27.622Z,9.05
2022-12-24T16:01:19.555Z,8.98
2022-12-24T16:04:00.190Z,8.89
2022-12-24T16:06:53.385Z,8.90
2022-12-24T16:09:47.167Z,8.74
2022-12-24T16:12:22.403Z,8.78
2022-12-24T16:15:00.732Z,8.69
2022-12-24T16:17:36.963Z,8.67
2022-12-24T16:20:19.224Z,8.55
2022-12-24T16:22:52.435Z,8.58
2022-12-24T16:25:28.593Z,8.60
2022-12-24T16:28:04.583Z,8.51
2022-12-24T16:30:40.093Z,8.49
2022-12-24T16:33:15.799Z,8.45
2022-12-24T16:35:48.916Z,8.45
2022-12-24T16:38:22.190Z,8.40
2022-12-24T16:40:54.976Z,8.38
2022-12-24T16:43:45.222Z,8.27
2022-12-24T16:46:19.629Z,8.27
2022-12-24T16:48:52.690Z,8.18
2022-12-24T16:51:25.596Z,7.99
2022-12-24T16:53:58.613Z,8.01
2022-12-24T16:56:31.878Z,8.02
2022-12-24T16:59:05.048Z,7.94
2022-12-24T17:01:39.446Z,7.86
2022-12-24T17:04:14.414Z,7.98
2022-12-24T17:06:49.901Z,7.99
2022-12-24T17:09:22.997Z,7.89
2022-12-24T17:11:55.932Z,7.88
2022-12-24T17:14:29.327Z,7.89
2022-12-24T17:17:04.612Z,7.75
2022-12-24T17:19:37.805Z,7.74
2022-12-24T17:22:10.906Z,7.74
2022-12-24T17:24:44.196Z,7.66
2022-12-24T17:27:17.178Z,7.69
2022-12-24T17:29:50.859Z,7.67
2022-12-24T17:32:26.376Z,7.50
2022-12-24T17:35:03.116Z,7.45
2022-12-24T17:37:36.082Z,7.38
2022-12-24T17:40:10.389Z,7.22
2022-12-24T17:42:43.964Z,7.27
2022-12-24T17:45:16.950Z,7.30
2022-12-24T17:47:51.133Z,7.26
2022-12-24T17:50:23.928Z,7.21
2022-12-24T17:52:56.743Z,6.96
2022-12-24T17:55:29.631Z,6.79
2022-12-24T17:58:02.711Z,6.87
2022-12-24T18:00:35.551Z,6.76
2022-12-24T18:03:13.765Z,6.77
2022-12-24T18:05:46.614Z,6.85
2022-12-24T18:08:20.324Z,6.77
2022-12-24T18:10:53.189Z,6.76
2022-12-24T18:13:26.280Z,6.78
2022-12-24T18:15:59.093Z,6.72
2022-12-24T18:18:33.541Z,6.49
2022-12-24T18:21:06.678Z,6.62
2022-12-24T18:23:43.029Z,6.64
2022-12-24T18:26:16.987Z,6.52
2022-12-24T18:28:49.722Z,6.60
2022-12-24T18:31:23.645Z,6.54
2022-12-24T18:33:58.120Z,6.45
2022-12-24T18:36:31.086Z,6.48
2022-12-24T18:39:04.606Z,6.48
2022-12-24T18:41:37.723Z,6.27
2022-12-24T18:44:10.876Z,6.17
2022-12-24T18:46:44.039Z,6.19
2022-12-24T18:49:18.251Z,6.08
2022-12-24T18:51:51.101Z,6.04
2022-12-24T18:54:24.295Z,6.11
2022-12-24T18:56:57.129Z,6.14
2022-12-24T18:59:30.110Z,5.86
2022-12-24T19:02:03.096Z,5.92
2022-12-24T19:04:38.455Z,5.81
2022-12-24T19:07:11.334Z,5.81
2022-12-24T19:09:47.657Z,5.75
2022-12-24T19:12:20.449Z,5.65
2022-12-24T19:14:53.290Z,5.59
2022-12-24T19:17:26.101Z,5.67
2022-12-24T19:20:00.289Z,5.63
2022-12-24T19:22:33.128Z,5.64
2022-12-24T19:25:06.886Z,5.59
2022-12-24T19:27:39.768Z,5.53
2022-12-24T19:30:13.542Z,5.54
2022-12-24T19:32:46.359Z,5.45
2022-12-24T19:35:20.626Z,5.47
2022-12-24T19:37:53.405Z,5.49
2022-12-24T19:40:26.877Z,5.52
2022-12-24T19:42:59.692Z,5.46
2022-12-24T19:45:32.629Z,5.36
2022-12-24T19:48:05.978Z,5.32
2022-12-24T19:50:40.115Z,5.25
2022-12-24T19:53:13.333Z,5.25
2022-12-24T19:55:46.759Z,5.27
2022-12-24T19:58:19.513Z,5.33
2022-12-24T20:00:52.408Z,5.29
2022-12-24T20:03:25.337Z,5.32
2022-12-24T20:05:59.501Z,5.36
2022-12-24T20:08:32.909Z,5.37
2022-12-24T20:11:06.988Z,5.36
2022-12-24T20:13:41.168Z,5.35
2022-12-24T20:16:16.567Z,5.42
2022-12-24T20:18:52.012Z,5.47
2022-12-24T20:21:27.240Z,5.39
2022-12-24T20:24:00.299Z,5.29
2022-12-24T20:26:33.703Z,5.25
2022-12-24T20:29:08.638Z,5.16
2022-12-24T20:31:42.068Z,5.06
2022-12-24T20:34:14.891Z,5.10
2022-12-24T20:36:48.997Z,5.14
2022-12-24T20:39:22.177Z,5.16
2022-12-24T20:41:55.065Z,4.98
2022-12-24T20:44:28.096Z,4.91
2022-12-24T20:47:00.917Z,4.98
2022-12-24T20:49:33.709Z,5.01
2022-12-24T20:52:08.528Z,5.06
2022-12-24T20:54:41.322Z,5.12
2022-12-24T20:57:16.012Z,5.15
2022-12-24T20:59:51.674Z,5.19
2022-12-24T21:02:25.892Z,5.17
2022-12-24T21:05:02.178Z,5.27
2022-12-24T21:07:38.811Z,5.24
2022-12-24T21:10:13.201Z,5.25
2022-12-24T21:12:52.451Z,5.33
2022-12-24T21:15:27.620Z,5.32
2022-12-24T21:18:01.540Z,5.27
2022-12-24T21:20:35.080Z,5.28
2022-12-24T21:23:10.521Z,5.28
2022-12-24T21:25:43.323Z,5.34
2022-12-24T21:28:17.569Z,5.25
2022-12-24T21:30:50.451Z,5.29
2022-12-24T21:33:24.063Z,5.27
2022-12-24T21:35:59.686Z,5.17
2022-12-24T21:38:33.910Z,5.13
2022-12-24T21:41:09.172Z,5.22
2022-12-24T21:43:42.678Z,5.25
2022-12-24T21:46:22.929Z,5.24
2022-12-24T21:49:13.573Z,5.27
2022-12-24T21:51:48.641Z,5.28
2022-12-24T21:54:28.238Z,5.21
2022-12-24T21:57:21.115Z,5.18
2022-12-24T21:59:56.208Z,5.17
2022-12-24T22:02:29.435Z,5.21
2022-12-24T22:05:02.443Z,5.16
2022-12-24T22:07:53.612Z,5.29
2022-12-24T22:10:45.772Z,5.23
2022-12-24T22:13:19.136Z,5.29
2022-12-24T22:15:53.707Z,5.32
2022-12-24T22:18:27.126Z,5.36
2022-12-24T22:21:03.340Z,5.47
2022-12-24T22:23:42.113Z,5.37
2022-12-24T22:26:18.869Z,5.32
2022-12-24T22:28:51.688Z,5.36
2022-12-24T22:31:25.252Z,5.30
2022-12-24T22:33:58.123Z,5.28
2022-12-24T22:36:31.484Z,5.12
2022-12-24T22:39:05.258Z,5.19
2022-12-24T22:41:40.007Z,5.22
2022-12-24T22:44:12.960Z,5.15
2022-12-24T22:46:45.941Z,5.03
2022-12-24T22:49:18.971Z,5.05
2022-12-24T22:51:51.846Z,5.10
2022-12-24T22:54:24.733Z,5.20
2022-12-24T22:56:58.912Z,5.33
2022-12-24T22:59:31.876Z,5.03
2022-12-24T23:02:05.764Z,5.11
2022-12-24T23:04:41.685Z,5.19
2022-12-24T23:07:14.609Z,5.13
2022-12-24T23:09:47.637Z,5.18
2022-12-24T23:12:41.894Z,5.13
2022-12-24T23:15:13.711Z,4.97
2022-12-24T23:17:49.445Z,5.06
2022-12-24T23:20:22.270Z,4.93
2022-12-24T23:22:55.145Z,4.89
2022-12-24T23:25:27.934Z,4.90
2022-12-24T23:28:02.332Z,4.93
2022-12-24T23:30:35.137Z,4.92
2022-12-24T23:33:07.941Z,4.81
2022-12-24T23:35:40.793Z,4.72
2022-12-24T23:38:13.631Z,4.74
2022-12-24T23:40:46.499Z,4.65
2022-12-24T23:43:20.912Z,4.60
2022-12-24T23:45:54.936Z,4.68
2022-12-24T23:48:28.238Z,4.64
2022-12-24T23:51:06.016Z,4.60
2022-12-24T23:53:39.413Z,4.50
2022-12-24T23:56:13.613Z,4.53
2022-12-24T23:58:48.616Z,4.58
